M I D A S
Marine Information and Data Acquisition System
Tripno 1261 of the Zeeleeuw from 2007-04-11 06:25:57 to 2007-04-11 16:50:56
Back to CruiseResearch ActivitiesStationsMapUnderway DataData graphs

EquipmentUnitsComment
TimeDGPSUTC
LatitudeDGPSDM.mWGS84
LongitudeDGPSDM.mWGS84
HeadingGyrodeg 
SOGDGPSknotsSpeed over ground
COGDGPSdegCourse over ground
DepthEcho soundermeters200 kHz
Missing or incorrect values are displayed as -999
Navigation data collected by the RV Zeeleeuw from 2007-04-11 06:25:11 to 2007-04-11 17:00:22
                                                                                    Next 1000 lines
Time Latitude Longitude Heading SOG COG Depth
2007-04-11 06:25:21 51°13.602 2°56.099 125.4 0.1 181 -999
2007-04-11 06:25:26 51°13.602 2°56.099 125.7 0.1 113 -999
2007-04-11 06:25:31 51°13.601 2°56.099 126.1 0.1 153 -999
2007-04-11 06:25:36 51°13.601 2°56.099 126.3 0.1 90 -999
2007-04-11 06:25:41 51°13.601 2°56.1 126.4 0.1 133 -999
2007-04-11 06:25:46 51°13.602 2°56.1 126.3 0.1 18 -999
2007-04-11 06:25:51 51°13.602 2°56.1 126.1 -999 234 -999
2007-04-11 06:25:56 51°13.601 2°56.1 126 -999 210 -999
2007-04-11 06:26:01 51°13.601 2°56.1 126 -999 50 -999
2007-04-11 06:26:06 51°13.601 2°56.099 126 -999 52 -999
2007-04-11 06:26:11 51°13.601 2°56.1 125.9 -999 142 -999
2007-04-11 06:26:16 51°13.601 2°56.1 125.7 -999 72 -999
2007-04-11 06:26:21 51°13.602 2°56.1 125.7 0.1 22 -999
2007-04-11 06:26:26 51°13.601 2°56.1 125.7 -999 133 -999
2007-04-11 06:26:31 51°13.601 2°56.099 125.7 -999 4 -999
2007-04-11 06:26:36 51°13.601 2°56.099 125.5 -999 357 -999
2007-04-11 06:26:41 51°13.602 2°56.099 125 -999 21 -999
2007-04-11 06:26:46 51°13.601 2°56.099 124.5 0.1 167 -999
2007-04-11 06:26:51 51°13.601 2°56.099 124.1 -999 85 -999
2007-04-11 06:26:56 51°13.601 2°56.099 123.4 0.1 173 -999
2007-04-11 06:27:01 51°13.601 2°56.099 122.7 -999 182 -999
2007-04-11 06:27:06 51°13.601 2°56.1 121.8 0.1 198 -999
2007-04-11 06:27:11 51°13.601 2°56.099 120.6 0.1 203 -999
2007-04-11 06:27:16 51°13.601 2°56.099 119.3 0.1 192 -999
2007-04-11 06:27:21 51°13.601 2°56.099 118 0.1 190 -999
2007-04-11 06:27:26 51°13.601 2°56.099 116.6 0.1 192 -999
2007-04-11 06:27:31 51°13.601 2°56.099 115.4 0.1 214 -999
2007-04-11 06:27:36 51°13.601 2°56.099 114.5 0.1 269 -999
2007-04-11 06:27:41 51°13.601 2°56.098 113.9 0.4 298 -999
2007-04-11 06:27:46 51°13.601 2°56.097 113.6 0.6 287 -999
2007-04-11 06:27:51 51°13.601 2°56.095 113.6 1 291 -999
2007-04-11 06:27:56 51°13.602 2°56.093 113.7 1.4 290 -999
2007-04-11 06:28:01 51°13.603 2°56.089 114.1 1.8 293 -999
2007-04-11 06:28:06 51°13.604 2°56.085 114.6 2.1 294 -999
2007-04-11 06:28:11 51°13.605 2°56.08 114.9 2.4 294 -999
2007-04-11 06:28:17 51°13.607 2°56.074 115 2.7 294 -999
2007-04-11 06:28:21 51°13.608 2°56.069 115 2.9 294 -999
2007-04-11 06:28:26 51°13.61 2°56.063 114.7 3.2 293 -999
2007-04-11 06:28:31 51°13.612 2°56.056 114.6 3.3 293 -999
2007-04-11 06:28:36 51°13.614 2°56.049 114.9 3.4 293 -999
2007-04-11 06:28:41 51°13.615 2°56.042 115.5 3.6 293 -999
2007-04-11 06:28:46 51°13.617 2°56.034 116.2 3.7 293 -999
2007-04-11 06:28:51 51°13.619 2°56.026 117 3.9 293 -999
2007-04-11 06:28:56 51°13.621 2°56.018 117.9 4 294 -999
2007-04-11 06:29:01 51°13.624 2°56.01 118.4 4.1 294 -999
2007-04-11 06:29:06 51°13.626 2°56.002 119 4.2 294 -999
2007-04-11 06:29:11 51°13.629 2°55.993 119.3 4.4 295 -999
2007-04-11 06:29:16 51°13.631 2°55.984 119.8 4.5 295 -999
2007-04-11 06:29:21 51°13.634 2°55.974 120.3 4.7 296 -999
2007-04-11 06:29:26 51°13.637 2°55.965 120.7 4.8 296 -999
2007-04-11 06:29:31 51°13.64 2°55.955 120.8 4.9 297 -999
2007-04-11 06:29:36 51°13.643 2°55.946 120.8 4.9 297 -999
2007-04-11 06:29:41 51°13.646 2°55.936 120.6 4.8 298 -999
2007-04-11 06:29:46 51°13.649 2°55.927 120.3 4.7 298 -999
2007-04-11 06:29:51 51°13.652 2°55.918 119.7 4.5 298 -999
2007-04-11 06:29:56 51°13.655 2°55.91 119 4.4 297 -999
2007-04-11 06:30:01 51°13.658 2°55.901 118 4.3 297 -999
2007-04-11 06:30:06 51°13.66 2°55.893 117 4.1 296 -999
2007-04-11 06:30:12 51°13.663 2°55.884 115.9 4 296 -999
2007-04-11 06:30:16 51°13.665 2°55.878 114.7 3.8 295 -999
2007-04-11 06:30:21 51°13.667 2°55.87 113.5 3.7 295 -999
2007-04-11 06:30:26 51°13.669 2°55.863 112 3.5 293 -999
2007-04-11 06:30:31 51°13.671 2°55.856 110.6 3.4 293 5.2
2007-04-11 06:30:36 51°13.672 2°55.849 110 3.3 292 12.3
2007-04-11 06:30:41 51°13.674 2°55.842 109.5 3.2 291 12.3
2007-04-11 06:30:46 51°13.675 2°55.836 108.8 3.1 290 12.3
2007-04-11 06:30:51 51°13.677 2°55.83 108 3 288 12.3
2007-04-11 06:30:55 51°13.677 2°55.825 107 2.9 288 12.3
2007-04-11 06:31:00 51°13.679 2°55.819 105.4 2.8 286 12.3
2007-04-11 06:31:05 51°13.68 2°55.813 104.2 2.7 285 12.5
2007-04-11 06:31:10 51°13.68 2°55.808 102.3 2.6 284 12.7
2007-04-11 06:31:15 51°13.681 2°55.802 100.7 2.6 283 12.7
2007-04-11 06:31:20 51°13.682 2°55.797 99 2.4 280 12.7
2007-04-11 06:31:24 51°13.682 2°55.793 97.5 2.4 280 12.7
2007-04-11 06:31:29 51°13.683 2°55.788 96.4 2.2 277 12.8
2007-04-11 06:31:34 51°13.683 2°55.783 95 2.1 275 13
2007-04-11 06:31:39 51°13.683 2°55.779 93.3 1.8 273 13.2
2007-04-11 06:31:44 51°13.683 2°55.776 92.2 1.7 272 13.4
2007-04-11 06:31:49 51°13.683 2°55.772 90.7 1.6 272 13.4
2007-04-11 06:31:53 51°13.683 2°55.77 90 1.4 271 13.5
2007-04-11 06:31:58 51°13.683 2°55.767 89.2 1.3 271 13.6
2007-04-11 06:32:03 51°13.683 2°55.764 88.7 1.1 270 13.7
2007-04-11 06:32:08 51°13.683 2°55.762 87.8 1 272 13.8
2007-04-11 06:32:13 51°13.683 2°55.76 86.7 0.8 271 13.6
2007-04-11 06:32:18 51°13.683 2°55.759 85.3 0.7 277 13.7
2007-04-11 06:32:23 51°13.683 2°55.758 83.2 0.5 277 13.8
2007-04-11 06:32:28 51°13.683 2°55.757 81.6 0.4 285 13.7
2007-04-11 06:32:32 51°13.683 2°55.756 79.7 0.3 296 13.6
2007-04-11 06:32:37 51°13.684 2°55.756 77.6 0.2 331 13.7
2007-04-11 06:32:42 51°13.684 2°55.756 75.3 0.2 7 13.8
2007-04-11 06:32:48 51°13.684 2°55.756 72.8 0.3 29 14
2007-04-11 06:32:52 51°13.684 2°55.757 70.2 0.4 42 14.4
2007-04-11 06:32:58 51°13.685 2°55.757 67.4 0.5 43 14.6
2007-04-11 06:33:02 51°13.686 2°55.758 64.5 0.6 45 14.8
2007-04-11 06:33:08 51°13.686 2°55.759 61.5 0.7 43 14.7
2007-04-11 06:33:13 51°13.687 2°55.76 58.4 0.8 41 14.4
2007-04-11 06:33:18 51°13.688 2°55.762 55.2 0.9 39 14.2
2007-04-11 06:33:22 51°13.689 2°55.763 52.1 0.9 39 14.2
2007-04-11 06:33:27 51°13.69 2°55.764 48.9 1 35 14
2007-04-11 06:33:33 51°13.692 2°55.766 45.7 1.1 34 13.8
2007-04-11 06:33:38 51°13.693 2°55.767 42.3 1.2 29 14.1
2007-04-11 06:33:42 51°13.694 2°55.768 39 1.3 27 14.8
2007-04-11 06:33:48 51°13.696 2°55.77 35.6 1.3 26 14.9
2007-04-11 06:33:52 51°13.697 2°55.77 32.4 1.1 21 15
2007-04-11 06:33:58 51°13.698 2°55.771 29.8 0.7 22 15.1
2007-04-11 06:34:02 51°13.699 2°55.771 27.6 0.2 3 15.1
2007-04-11 06:34:08 51°13.699 2°55.771 24.9 0.3 212 15.1
2007-04-11 06:34:12 51°13.698 2°55.771 22.6 0.7 202 15.3
2007-04-11 06:34:18 51°13.696 2°55.77 21 0.9 201 15.1
2007-04-11 06:34:22 51°13.695 2°55.769 19.9 0.9 202 14.9
2007-04-11 06:34:28 51°13.694 2°55.768 19.5 0.8 202 14.8
2007-04-11 06:34:33 51°13.694 2°55.768 18.9 0.5 213 -999
2007-04-11 06:34:39 51°13.694 2°55.768 17.8 0.2 324 -999
2007-04-11 06:34:45 51°13.695 2°55.767 14.5 0.7 352 -999
2007-04-11 06:34:50 51°13.696 2°55.767 10.2 1.1 357 -999
2007-04-11 06:34:56 51°13.698 2°55.767 4.1 1.2 351 -999
2007-04-11 06:35:01 51°13.7 2°55.766 359.2 1.4 351 -999
2007-04-11 06:35:06 51°13.702 2°55.766 354.9 1.6 346 -999
2007-04-11 06:35:11 51°13.705 2°55.764 350.5 2.1 341 6.9
2007-04-11 06:35:16 51°13.708 2°55.762 346.7 2.4 337 15.8
2007-04-11 06:35:21 51°13.711 2°55.759 341.6 2.7 329 15.6
2007-04-11 06:35:25 51°13.714 2°55.757 336 3 327 15.6
2007-04-11 06:35:30 51°13.718 2°55.752 330.2 3.4 324 14.9
2007-04-11 06:35:35 51°13.722 2°55.748 326.8 3.7 324 14.5
2007-04-11 06:35:40 51°13.726 2°55.742 325.5 4.1 323 13.8
2007-04-11 06:35:45 51°13.731 2°55.736 325.3 4.3 324 13.7
2007-04-11 06:35:50 51°13.736 2°55.73 325.8 4.6 322 13.8
2007-04-11 06:35:55 51°13.741 2°55.724 326.2 4.9 325 13.8
2007-04-11 06:36:00 51°13.747 2°55.717 326.8 5.2 322 13.2
2007-04-11 06:36:04 51°13.752 2°55.711 327.3 5.4 325 13.2
2007-04-11 06:36:09 51°13.758 2°55.704 328.2 5.6 324 13.2
2007-04-11 06:36:14 51°13.765 2°55.697 329.3 5.8 326 13.1
2007-04-11 06:36:19 51°13.772 2°55.69 330.4 6 326 13
2007-04-11 06:36:24 51°13.779 2°55.682 331.2 6.2 328 13
2007-04-11 06:36:29 51°13.787 2°55.675 332 6.4 328 13.1
2007-04-11 06:36:33 51°13.793 2°55.669 332.8 6.6 330 13
2007-04-11 06:36:38 51°13.801 2°55.662 334.3 6.8 331 13
2007-04-11 06:36:43 51°13.81 2°55.655 335.8 7 332 13.1
2007-04-11 06:36:48 51°13.819 2°55.648 336.9 7.1 334 13.2
2007-04-11 06:36:53 51°13.827 2°55.64 337.5 7.3 333 13.2
2007-04-11 06:36:58 51°13.837 2°55.632 337.9 7.5 334 13.1
2007-04-11 06:37:02 51°13.845 2°55.627 338.3 7.6 335 13.2
2007-04-11 06:37:08 51°13.856 2°55.617 338.7 7.8 335 13.1
2007-04-11 06:37:13 51°13.866 2°55.611 339.5 8 336 13
2007-04-11 06:37:18 51°13.877 2°55.604 339.8 8.2 335 13
2007-04-11 06:37:22 51°13.885 2°55.597 339.4 8.3 335 13
2007-04-11 06:37:28 51°13.898 2°55.588 339 8.4 335 12.7
2007-04-11 06:37:33 51°13.908 2°55.579 339 8.6 335 13
2007-04-11 06:37:38 51°13.919 2°55.571 339.1 8.7 335 13
2007-04-11 06:37:42 51°13.928 2°55.565 339.3 8.7 335 13.2
2007-04-11 06:37:48 51°13.941 2°55.555 339.6 8.8 336 13.6
2007-04-11 06:37:53 51°13.953 2°55.547 339.6 8.8 335 13.1
2007-04-11 06:37:58 51°13.964 2°55.539 339.8 8.9 336 13.1
2007-04-11 06:38:02 51°13.973 2°55.533 340.5 8.9 337 13.2
2007-04-11 06:38:07 51°13.985 2°55.525 341.1 8.9 337 13.1
2007-04-11 06:38:12 51°13.996 2°55.518 341.1 9 336 13.1
2007-04-11 06:38:18 51°14.01 2°55.508 340.5 9 336 13.1
2007-04-11 06:38:22 51°14.019 2°55.502 340.4 9 336 12.9
2007-04-11 06:38:28 51°14.033 2°55.492 340.5 9 336 13
2007-04-11 06:38:32 51°14.042 2°55.485 340.2 9 335 13
2007-04-11 06:38:38 51°14.055 2°55.475 339.5 9.1 335 13
2007-04-11 06:38:42 51°14.065 2°55.468 338.9 9.1 334 13.1
2007-04-11 06:38:48 51°14.078 2°55.458 338.9 9.1 336 -999
2007-04-11 06:38:53 51°14.09 2°55.449 339.6 9.1 335 13
2007-04-11 06:38:58 51°14.101 2°55.441 339.8 9.1 335 -999
2007-04-11 06:39:03 51°14.113 2°55.432 339.3 9.1 334 -999
2007-04-11 06:39:08 51°14.124 2°55.424 339.2 9.2 335 13.1
2007-04-11 06:39:13 51°14.136 2°55.415 339.1 9.2 334 13.1
2007-04-11 06:39:18 51°14.147 2°55.406 338.2 9.4 333 13
2007-04-11 06:39:23 51°14.159 2°55.396 337.5 9.6 332 -999
2007-04-11 06:39:29 51°14.173 2°55.383 337 9.7 332 13
2007-04-11 06:39:35 51°14.187 2°55.37 335.5 9.9 329 -999
2007-04-11 06:39:40 51°14.199 2°55.358 333.1 10.1 327 -999
2007-04-11 06:39:46 51°14.213 2°55.342 331.5 10.2 326 -999
2007-04-11 06:39:51 51°14.225 2°55.329 330 10.4 323 -999
2007-04-11 06:39:56 51°14.236 2°55.314 327.1 10.5 320 -999
2007-04-11 06:40:01 51°14.247 2°55.298 324 10.5 317 -999
2007-04-11 06:40:06 51°14.257 2°55.282 321.9 10.6 316 -999
2007-04-11 06:40:11 51°14.268 2°55.265 320.2 10.8 315 13.1
2007-04-11 06:40:16 51°14.278 2°55.248 319.3 11 314 13.3
2007-04-11 06:40:21 51°14.289 2°55.23 318.5 11.2 313 13.1
2007-04-11 06:40:26 51°14.299 2°55.211 317.5 11.4 312 13
2007-04-11 06:40:31 51°14.31 2°55.191 316.5 11.6 310 12.6
2007-04-11 06:40:35 51°14.318 2°55.175 315.5 11.6 309 12.8
2007-04-11 06:40:41 51°14.329 2°55.151 314.1 11.7 306 12.7
2007-04-11 06:40:45 51°14.337 2°55.134 311.8 11.7 305 12.7
2007-04-11 06:40:50 51°14.346 2°55.112 309.1 11.8 303 12.7
2007-04-11 06:40:55 51°14.356 2°55.09 308 12 305 12.7
2007-04-11 06:41:00 51°14.365 2°55.068 308.7 12.2 304 12.5
2007-04-11 06:41:05 51°14.375 2°55.045 309 12.5 303 12.6
2007-04-11 06:41:09 51°14.382 2°55.026 307.7 12.8 303 12.7
2007-04-11 06:41:14 51°14.392 2°55.002 307 12.9 304 12.5
2007-04-11 06:41:19 51°14.402 2°54.978 306.9 13.1 304 12.6
2007-04-11 06:41:24 51°14.413 2°54.954 307.4 13.1 305 12.8
2007-04-11 06:41:29 51°14.424 2°54.931 307.6 13.2 306 12.6
2007-04-11 06:41:34 51°14.435 2°54.908 308.2 13.3 308 12.7
2007-04-11 06:41:38 51°14.445 2°54.89 309.3 13.3 309 12.8
2007-04-11 06:41:43 51°14.457 2°54.867 310.5 13.3 310 12.3
2007-04-11 06:41:48 51°14.469 2°54.845 311.3 13.3 310 12.5
2007-04-11 06:41:53 51°14.48 2°54.822 311.1 13.2 309 12.2
2007-04-11 06:41:58 51°14.491 2°54.799 309.8 13.2 308 12.5
2007-04-11 06:42:02 51°14.5 2°54.78 307.9 13.1 306 12.6
2007-04-11 06:42:08 51°14.512 2°54.751 306.2 13 305 12.2
2007-04-11 06:42:12 51°14.52 2°54.732 305.1 13.1 304 12
2007-04-11 06:42:17 51°14.53 2°54.708 304.2 13 304 12.4
2007-04-11 06:42:22 51°14.54 2°54.684 303.9 13 303 11.9
2007-04-11 06:42:28 51°14.552 2°54.655 303.4 13 303 12.1
2007-04-11 06:42:33 51°14.562 2°54.631 303.2 13 303 11.8
2007-04-11 06:42:38 51°14.571 2°54.607 302.8 13 303 11.8
2007-04-11 06:42:42 51°14.579 2°54.588 302.8 12.9 303 12
2007-04-11 06:42:48 51°14.591 2°54.559 302.6 12.9 302 11.8
2007-04-11 06:42:53 51°14.601 2°54.534 302.6 13 302 12
2007-04-11 06:42:58 51°14.61 2°54.51 302.7 13 303 12
2007-04-11 06:43:02 51°14.618 2°54.491 303 13 303 12
2007-04-11 06:43:08 51°14.63 2°54.462 303.2 13 303 12
2007-04-11 06:43:12 51°14.637 2°54.443 303.4 12.9 302 12.1
2007-04-11 06:43:17 51°14.647 2°54.418 302.2 12.8 299 12
2007-04-11 06:43:23 51°14.655 2°54.387 298.3 12.8 295 11.9
2007-04-11 06:43:28 51°14.663 2°54.362 295.5 12.7 294 12
2007-04-11 06:43:32 51°14.668 2°54.341 293.3 12.6 291 11.9
2007-04-11 06:43:37 51°14.674 2°54.315 291.7 12.7 291 11.9
2007-04-11 06:43:43 51°14.681 2°54.283 290.6 12.6 290 12
2007-04-11 06:43:48 51°14.687 2°54.257 289.5 12.6 289 12.1
2007-04-11 06:43:52 51°14.691 2°54.236 288.8 12.7 288 11.9
2007-04-11 06:43:58 51°14.697 2°54.204 288.3 12.6 287 12.1
2007-04-11 06:44:02 51°14.701 2°54.182 287.6 12.6 285 12
2007-04-11 06:44:08 51°14.706 2°54.15 286.4 12.5 284 11.9
2007-04-11 06:44:12 51°14.708 2°54.128 283 12.5 278 11.8
2007-04-11 06:44:18 51°14.711 2°54.096 280.1 12.5 279 11.9
2007-04-11 06:44:22 51°14.712 2°54.074 277.7 12.4 275 12
2007-04-11 06:44:28 51°14.714 2°54.041 276.2 12.5 276 12.1
2007-04-11 06:44:33 51°14.715 2°54.014 275.9 12.5 274 12.5
2007-04-11 06:44:38 51°14.717 2°53.986 275.5 12.5 275 12.4
2007-04-11 06:44:42 51°14.718 2°53.964 275.3 12.5 274 12.4
2007-04-11 06:44:48 51°14.719 2°53.931 275 12.6 274 12.8
2007-04-11 06:44:53 51°14.72 2°53.903 275 12.6 273 12.7
2007-04-11 06:44:58 51°14.721 2°53.875 274.9 12.6 274 12.4
2007-04-11 06:45:02 51°14.722 2°53.853 275 12.7 274 12.3
2007-04-11 06:45:08 51°14.724 2°53.82 275.1 12.7 274 12.5
2007-04-11 06:45:12 51°14.724 2°53.797 275 12.7 274 12.6
2007-04-11 06:45:18 51°14.726 2°53.763 275.4 12.8 273 12.5
2007-04-11 06:45:22 51°14.727 2°53.741 276 12.8 274 12.7
2007-04-11 06:45:28 51°14.728 2°53.707 276.1 12.8 275 12.5
2007-04-11 06:45:33 51°14.73 2°53.679 276.5 12.8 274 12.3
2007-04-11 06:45:38 51°14.731 2°53.65 276.4 12.9 274 12.5
2007-04-11 06:45:43 51°14.732 2°53.622 276.5 12.9 274 12.7
2007-04-11 06:45:48 51°14.734 2°53.593 276.4 12.9 274 12.4
2007-04-11 06:45:53 51°14.735 2°53.565 276.6 13 274 12.5
2007-04-11 06:45:57 51°14.736 2°53.542 276.8 12.9 274 12.3
2007-04-11 06:46:03 51°14.738 2°53.508 276.5 12.9 275 12.3
2007-04-11 06:46:08 51°14.739 2°53.479 276.5 12.9 274 12.3
2007-04-11 06:46:12 51°14.74 2°53.457 276.5 12.9 274 -999
2007-04-11 06:46:18 51°14.742 2°53.422 276.5 13 275 12.2
2007-04-11 06:46:22 51°14.743 2°53.399 276.7 13 275 12.3
2007-04-11 06:46:28 51°14.745 2°53.365 277.2 12.9 275 12.4
2007-04-11 06:46:33 51°14.747 2°53.337 277.1 12.9 275 12.1
2007-04-11 06:46:38 51°14.748 2°53.308 277.1 13 275 11.8
2007-04-11 06:46:42 51°14.75 2°53.285 277.2 13 275 11.9
2007-04-11 06:46:47 51°14.751 2°53.256 277.3 13 275 11.4
2007-04-11 06:46:52 51°14.753 2°53.228 277.8 13 276 11.2
2007-04-11 06:46:58 51°14.755 2°53.194 278 13 276 11.3
2007-04-11 06:47:02 51°14.757 2°53.171 278.2 13 276 11.3
2007-04-11 06:47:08 51°14.759 2°53.136 278.1 13 276 11.3
2007-04-11 06:47:13 51°14.761 2°53.108 277.8 13 276 11.2
2007-04-11 06:47:18 51°14.763 2°53.079 277.7 13 275 11.2
2007-04-11 06:47:22 51°14.764 2°53.056 277.5 13 276 11.2
2007-04-11 06:47:28 51°14.766 2°53.022 277.4 13.1 276 11.2
2007-04-11 06:47:32 51°14.768 2°52.999 277.5 13.1 276 11.2
2007-04-11 06:47:38 51°14.77 2°52.964 277.5 13.1 276 11.2
2007-04-11 06:47:42 51°14.772 2°52.941 277.7 13.1 276 11.2
2007-04-11 06:47:48 51°14.774 2°52.907 277.7 13 276 11.3
2007-04-11 06:47:53 51°14.775 2°52.878 277.5 13 275 11.3
2007-04-11 06:47:58 51°14.777 2°52.85 277.2 13 277 11.3
2007-04-11 06:48:02 51°14.779 2°52.827 277.4 13 276 11.4
2007-04-11 06:48:08 51°14.781 2°52.793 277.6 13 277 11.3
2007-04-11 06:48:13 51°14.783 2°52.764 277.7 13 277 11.3
2007-04-11 06:48:18 51°14.786 2°52.735 278.4 13 278 11.4
2007-04-11 06:48:23 51°14.789 2°52.707 279.3 12.9 278 11.5
2007-04-11 06:48:28 51°14.792 2°52.679 280.2 12.9 280 11.5
2007-04-11 06:48:33 51°14.795 2°52.651 280.7 12.9 280 11.4
2007-04-11 06:48:37 51°14.797 2°52.629 281.1 12.9 280 11.5
2007-04-11 06:48:42 51°14.8 2°52.6 281.1 13 280 11.4
2007-04-11 06:48:48 51°14.804 2°52.567 281.2 12.9 279 11.5
2007-04-11 06:48:53 51°14.807 2°52.538 280.8 12.9 279 11.6
2007-04-11 06:48:57 51°14.809 2°52.516 280.6 12.9 279 11.6
2007-04-11 06:49:02 51°14.812 2°52.488 280.6 12.9 279 11.7
2007-04-11 06:49:08 51°14.815 2°52.454 280.8 12.9 280 11.7
2007-04-11 06:49:13 51°14.818 2°52.426 280.9 12.9 280 11.7
2007-04-11 06:49:17 51°14.82 2°52.404 281 12.9 279 11.8
2007-04-11 06:49:22 51°14.823 2°52.376 280.8 12.8 280 11.8
2007-04-11 06:49:28 51°14.826 2°52.342 280.8 12.8 280 11.7
2007-04-11 06:49:32 51°14.829 2°52.32 280.8 12.8 280 11.8
2007-04-11 06:49:37 51°14.832 2°52.292 281.1 12.9 280 11.9
2007-04-11 06:49:43 51°14.836 2°52.258 281.1 12.8 280 11.9
2007-04-11 06:49:48 51°14.838 2°52.23 281 12.8 279 12
2007-04-11 06:49:52 51°14.841 2°52.208 280.8 12.8 279 11.9
2007-04-11 06:49:58 51°14.844 2°52.175 280.3 12.8 278 12
2007-04-11 06:50:03 51°14.846 2°52.146 279.5 12.8 277 12
2007-04-11 06:50:08 51°14.848 2°52.118 278.9 12.8 277 12.2
2007-04-11 06:50:13 51°14.85 2°52.09 278.7 12.8 277 12.2
2007-04-11 06:50:18 51°14.853 2°52.062 278.4 12.8 277 12.1
2007-04-11 06:50:23 51°14.855 2°52.034 278.2 12.8 277 12.2
2007-04-11 06:50:28 51°14.857 2°52.006 278.2 12.8 277 12.1
2007-04-11 06:50:32 51°14.858 2°51.984 278.1 12.8 277 12.3
2007-04-11 06:50:37 51°14.86 2°51.956 277.8 12.8 276 12.2
2007-04-11 06:50:43 51°14.862 2°51.922 277.9 12.8 276 12.3
2007-04-11 06:50:48 51°14.864 2°51.894 276.8 12.7 274 12.4
2007-04-11 06:50:53 51°14.865 2°51.866 275.8 12.8 274 12.3
2007-04-11 06:50:58 51°14.866 2°51.838 275 12.8 273 12.4
2007-04-11 06:51:02 51°14.866 2°51.815 274.3 12.7 272 12.5
2007-04-11 06:51:08 51°14.867 2°51.782 274.1 12.8 271 12.5
2007-04-11 06:51:13 51°14.867 2°51.753 273.3 12.8 272 12.6
2007-04-11 06:51:18 51°14.868 2°51.725 273.4 12.8 272 12.6
2007-04-11 06:51:22 51°14.868 2°51.703 273.6 12.8 272 12.6
2007-04-11 06:51:27 51°14.869 2°51.674 273.6 12.8 272 12.7
2007-04-11 06:51:33 51°14.87 2°51.64 273.9 12.8 272 12.7
2007-04-11 06:51:38 51°14.871 2°51.612 274.3 12.8 273 12.8
2007-04-11 06:51:42 51°14.871 2°51.59 274.4 12.8 273 12.8
2007-04-11 06:51:48 51°14.873 2°51.556 274.8 12.8 274 12.9
2007-04-11 06:51:53 51°14.873 2°51.528 275 12.8 272 12.8
2007-04-11 06:51:58 51°14.874 2°51.499 274.7 12.8 273 12.8
2007-04-11 06:52:03 51°14.875 2°51.471 274.5 12.8 272 12.9
2007-04-11 06:52:08 51°14.876 2°51.443 274.5 12.8 273 13.1
2007-04-11 06:52:12 51°14.877 2°51.42 274.8 12.8 272 13.1
2007-04-11 06:52:18 51°14.878 2°51.387 274.7 12.8 273 13.1
2007-04-11 06:52:23 51°14.878 2°51.358 274.7 12.8 273 13.1
2007-04-11 06:52:28 51°14.88 2°51.33 274.8 12.8 273 13.1
2007-04-11 06:52:32 51°14.88 2°51.308 275.1 12.7 273 13.2
2007-04-11 06:52:38 51°14.882 2°51.275 275.1 12.7 273 13.2
2007-04-11 06:52:42 51°14.882 2°51.252 275 12.7 273 13.3
2007-04-11 06:52:48 51°14.883 2°51.219 275 12.7 274 13.2
2007-04-11 06:52:53 51°14.884 2°51.191 275 12.6 272 13.2
2007-04-11 06:52:58 51°14.885 2°51.163 274.8 12.6 274 13.3
2007-04-11 06:53:03 51°14.886 2°51.135 275 12.6 272 13.4
2007-04-11 06:53:08 51°14.887 2°51.107 275 12.6 273 13.3
2007-04-11 06:53:13 51°14.888 2°51.079 274.8 12.6 273 13.4
2007-04-11 06:53:18 51°14.889 2°51.051 274.8 12.7 273 13.5
2007-04-11 06:53:22 51°14.889 2°51.029 274.6 12.7 273 13.4
2007-04-11 06:53:28 51°14.89 2°50.996 274.6 12.6 273 13.5
2007-04-11 06:53:33 51°14.891 2°50.968 274.7 12.6 273 13.5
2007-04-11 06:53:38 51°14.892 2°50.94 274.8 12.7 273 13.6
2007-04-11 06:53:42 51°14.893 2°50.917 275 12.7 273 13.6
2007-04-11 06:53:48 51°14.894 2°50.884 275.2 12.7 273 13.6
2007-04-11 06:53:53 51°14.895 2°50.856 275.3 12.7 273 13.8
2007-04-11 06:53:58 51°14.896 2°50.828 275.1 12.7 273 13.7
2007-04-11 06:54:02 51°14.896 2°50.805 274.8 12.7 273 13.7
2007-04-11 06:54:08 51°14.897 2°50.772 274.8 12.7 273 13.7
2007-04-11 06:54:13 51°14.898 2°50.744 274.7 12.7 272 13.7
2007-04-11 06:54:18 51°14.899 2°50.716 274.6 12.7 273 13.7
2007-04-11 06:54:22 51°14.9 2°50.693 275.1 12.7 273 13.7
2007-04-11 06:54:28 51°14.901 2°50.66 275.2 12.7 273 13.8
2007-04-11 06:54:32 51°14.902 2°50.637 275.4 12.7 273 13.8
2007-04-11 06:54:37 51°14.903 2°50.61 275.5 12.7 274 13.9
2007-04-11 06:54:43 51°14.904 2°50.576 275.7 12.7 274 13.9
2007-04-11 06:54:48 51°14.905 2°50.548 275.6 12.7 274 13.9
2007-04-11 06:54:52 51°14.906 2°50.526 275.6 12.7 274 14
2007-04-11 06:54:57 51°14.907 2°50.498 275.8 12.7 274 14
2007-04-11 06:55:03 51°14.909 2°50.464 275.8 12.7 274 14
2007-04-11 06:55:08 51°14.91 2°50.436 275.8 12.7 274 14.1
2007-04-11 06:55:13 51°14.912 2°50.408 275.9 12.7 274 14
2007-04-11 06:55:17 51°14.913 2°50.386 276.1 12.7 274 14.2
2007-04-11 06:55:22 51°14.914 2°50.358 275.8 12.7 274 14.1
2007-04-11 06:55:28 51°14.915 2°50.324 275.4 12.7 273 14.2
2007-04-11 06:55:32 51°14.916 2°50.302 275.2 12.7 273 14.1
2007-04-11 06:55:37 51°14.917 2°50.274 275 12.7 274 14
2007-04-11 06:55:42 51°14.917 2°50.246 274.7 12.7 273 14.1
2007-04-11 06:55:48 51°14.919 2°50.212 275 12.7 273 14.1
2007-04-11 06:55:53 51°14.92 2°50.184 275 12.7 274 14.1
2007-04-11 06:55:58 51°14.921 2°50.157 275.1 12.6 273 14.1
2007-04-11 06:56:02 51°14.922 2°50.134 275 12.6 274 14.1
2007-04-11 06:56:08 51°14.922 2°50.101 275 12.6 272 14.2
2007-04-11 06:56:13 51°14.924 2°50.073 274.7 12.6 274 14.1
2007-04-11 06:56:18 51°14.925 2°50.045 275 12.6 273 14.2
2007-04-11 06:56:23 51°14.926 2°50.017 275 12.6 274 14.2
2007-04-11 06:56:28 51°14.927 2°49.99 275.1 12.6 273 14.2
2007-04-11 06:56:33 51°14.928 2°49.962 275.1 12.6 273 14.2
2007-04-11 06:56:38 51°14.929 2°49.934 275 12.6 274 14.2
2007-04-11 06:56:42 51°14.93 2°49.912 274.8 12.6 273 14.3
2007-04-11 06:56:48 51°14.931 2°49.878 274.8 12.6 274 14.3
2007-04-11 06:56:52 51°14.932 2°49.856 274.8 12.6 274 14.3
2007-04-11 06:56:57 51°14.933 2°49.828 275 12.6 273 14.3
2007-04-11 06:57:03 51°14.934 2°49.795 274.8 12.7 273 14.2
2007-04-11 06:57:08 51°14.935 2°49.767 274.9 12.7 273 14.2
2007-04-11 06:57:12 51°14.936 2°49.744 274.8 12.7 273 14.3
2007-04-11 06:57:17 51°14.937 2°49.716 274.8 12.7 273 14.3
2007-04-11 06:57:23 51°14.938 2°49.683 274.9 12.7 274 14.2
2007-04-11 06:57:28 51°14.939 2°49.655 275.1 12.7 274 14.2
2007-04-11 06:57:33 51°14.94 2°49.627 275.1 12.7 274 14.3
2007-04-11 06:57:38 51°14.941 2°49.599 275 12.7 273 14.4
2007-04-11 06:57:42 51°14.942 2°49.577 275.1 12.7 274 14.3
2007-04-11 06:57:48 51°14.944 2°49.543 275.1 12.7 275 14.3
2007-04-11 06:57:53 51°14.945 2°49.515 275.2 12.7 274 14.4
2007-04-11 06:57:58 51°14.946 2°49.487 275.8 12.7 274 14.4
2007-04-11 06:58:02 51°14.947 2°49.465 275.7 12.7 274 14.4
2007-04-11 06:58:08 51°14.949 2°49.431 275.3 12.7 274 14.4
2007-04-11 06:58:13 51°14.95 2°49.403 275.4 12.7 274 14.4
2007-04-11 06:58:18 51°14.951 2°49.375 275.5 12.7 274 14.5
2007-04-11 06:58:22 51°14.952 2°49.353 275.6 12.7 274 14.5
2007-04-11 06:58:28 51°14.953 2°49.319 275.3 12.7 273 14.4
2007-04-11 06:58:33 51°14.955 2°49.291 275.4 12.7 275 14.4
2007-04-11 06:58:38 51°14.956 2°49.263 275.3 12.6 273 14.4
2007-04-11 06:58:42 51°14.957 2°49.241 275 12.7 274 14.4
2007-04-11 06:58:48 51°14.958 2°49.207 275 12.7 273 14.5
2007-04-11 06:58:53 51°14.959 2°49.179 275 12.7 274 14.5
2007-04-11 06:58:58 51°14.96 2°49.152 274.8 12.7 273 14.6
2007-04-11 06:59:03 51°14.961 2°49.124 274.9 12.6 273 14.5
2007-04-11 06:59:08 51°14.962 2°49.096 274.9 12.7 273 14.5
2007-04-11 06:59:13 51°14.963 2°49.068 275.1 12.7 274 14.5
2007-04-11 06:59:18 51°14.964 2°49.04 275.3 12.7 273 14.5
2007-04-11 06:59:23 51°14.965 2°49.012 275.3 12.7 273 14.4
2007-04-11 06:59:28 51°14.966 2°48.984 275 12.6 273 14.4
2007-04-11 06:59:33 51°14.966 2°48.956 274.6 12.7 272 14.4
2007-04-11 06:59:37 51°14.967 2°48.933 274.7 12.7 274 14.5
2007-04-11 06:59:42 51°14.968 2°48.905 275 12.7 272 14.4
2007-04-11 06:59:48 51°14.97 2°48.872 275 12.7 274 14.4
2007-04-11 06:59:52 51°14.97 2°48.849 275.4 12.7 274 14.4
2007-04-11 06:59:57 51°14.971 2°48.821 275.5 12.7 273 14.4
2007-04-11 07:00:03 51°14.973 2°48.788 275.5 12.7 274 14.4
2007-04-11 07:00:08 51°14.974 2°48.76 275.3 12.7 273 14.3
2007-04-11 07:00:13 51°14.975 2°48.732 275.2 12.7 273 14.3
2007-04-11 07:00:17 51°14.976 2°48.709 275.1 12.7 274 14.4
2007-04-11 07:00:22 51°14.977 2°48.681 275.2 12.7 274 14.4
2007-04-11 07:00:28 51°14.978 2°48.648 275.6 12.6 274 14.4
2007-04-11 07:00:33 51°14.979 2°48.62 275.7 12.6 273 14.3
2007-04-11 07:00:38 51°14.981 2°48.592 275.6 12.6 274 14.3
2007-04-11 07:00:42 51°14.981 2°48.57 275.5 12.6 273 14.3
2007-04-11 07:00:48 51°14.983 2°48.536 275.3 12.6 273 14.4
2007-04-11 07:00:53 51°14.984 2°48.509 275.1 12.6 274 14.3
2007-04-11 07:00:58 51°14.985 2°48.481 275.3 12.6 274 14.5
2007-04-11 07:01:03 51°14.986 2°48.453 275.3 12.6 273 14.5
2007-04-11 07:01:08 51°14.987 2°48.425 275.5 12.6 274 14.5
2007-04-11 07:01:12 51°14.988 2°48.403 275.3 12.6 274 14.6
2007-04-11 07:01:17 51°14.99 2°48.375 275.7 12.6 273 14.6
2007-04-11 07:01:22 51°14.991 2°48.347 275.2 12.6 274 14.6
2007-04-11 07:01:28 51°14.992 2°48.314 275.1 12.6 274 14.8
2007-04-11 07:01:32 51°14.993 2°48.292 275 12.6 274 14.7
2007-04-11 07:01:37 51°14.994 2°48.264 275.2 12.6 273 14.7
2007-04-11 07:01:43 51°14.996 2°48.231 275.1 12.6 275 14.7
2007-04-11 07:01:48 51°14.997 2°48.203 275.3 12.6 274 14.7
2007-04-11 07:01:53 51°14.998 2°48.175 275.6 12.6 275 14.7
2007-04-11 07:01:58 51°15 2°48.148 275.8 12.6 274 14.7
2007-04-11 07:02:03 51°15.001 2°48.12 275.8 12.5 275 14.8
2007-04-11 07:02:08 51°15.002 2°48.093 275.1 12.6 273 14.8
2007-04-11 07:02:13 51°15.003 2°48.065 275.1 12.6 274 14.9
2007-04-11 07:02:18 51°15.004 2°48.037 275.1 12.5 273 14.8
2007-04-11 07:02:22 51°15.005 2°48.015 275 12.5 275 14.8
2007-04-11 07:02:28 51°15.006 2°47.982 274.7 12.5 273 14.8
2007-04-11 07:02:33 51°15.008 2°47.955 275 12.5 274 14.8
2007-04-11 07:02:38 51°15.009 2°47.927 275 12.5 274 14.7
2007-04-11 07:02:42 51°15.01 2°47.905 275.1 12.5 274 14.7
2007-04-11 07:02:48 51°15.012 2°47.872 275.4 12.5 274 14.7
2007-04-11 07:02:53 51°15.013 2°47.844 275.6 12.6 275 14.6
2007-04-11 07:02:58 51°15.014 2°47.817 275.7 12.5 275 14.6
2007-04-11 07:03:03 51°15.015 2°47.789 275.6 12.5 274 14.6
2007-04-11 07:03:08 51°15.017 2°47.761 275.3 12.5 274 14.4
2007-04-11 07:03:13 51°15.018 2°47.733 275 12.6 274 14.3
2007-04-11 07:03:18 51°15.019 2°47.706 275.3 12.6 273 14.2
2007-04-11 07:03:23 51°15.02 2°47.678 275.3 12.6 275 13.9
2007-04-11 07:03:28 51°15.021 2°47.65 275.5 12.6 274 13.9
2007-04-11 07:03:33 51°15.023 2°47.622 275.6 12.7 275 13.6
2007-04-11 07:03:38 51°15.024 2°47.595 275.8 12.6 274 13.2
2007-04-11 07:03:43 51°15.025 2°47.567 275.4 12.6 273 12.9
2007-04-11 07:03:48 51°15.026 2°47.539 275.3 12.7 273 13
2007-04-11 07:03:53 51°15.027 2°47.511 275 12.7 273 13
2007-04-11 07:03:58 51°15.027 2°47.483 274.8 12.7 272 12.1
2007-04-11 07:04:03 51°15.029 2°47.454 274.8 12.8 273 12.5
2007-04-11 07:04:08 51°15.029 2°47.426 274.7 12.8 272 12
2007-04-11 07:04:13 51°15.03 2°47.398 275 12.8 272 11.7
2007-04-11 07:04:17 51°15.03 2°47.376 274.7 12.8 272 11.9
2007-04-11 07:04:22 51°15.031 2°47.347 274.7 12.9 272 11.8
2007-04-11 07:04:28 51°15.032 2°47.313 274.9 12.9 272 11.7
2007-04-11 07:04:32 51°15.032 2°47.29 275 12.9 272 11.3
2007-04-11 07:04:37 51°15.033 2°47.262 275 12.9 272 11.1
2007-04-11 07:04:42 51°15.034 2°47.233 275 12.9 272 11
2007-04-11 07:04:48 51°15.035 2°47.199 275 13 273 11.3
2007-04-11 07:04:53 51°15.036 2°47.17 275.2 13 273 11.3
2007-04-11 07:04:58 51°15.036 2°47.142 275.5 13 273 11.2
2007-04-11 07:05:02 51°15.038 2°47.119 275.5 13 273 11.1
2007-04-11 07:05:08 51°15.039 2°47.085 275.8 13 275 11.3
2007-04-11 07:05:13 51°15.04 2°47.056 276.1 13 273 10.8
2007-04-11 07:05:18 51°15.041 2°47.028 275.9 12.9 273 10.9
2007-04-11 07:05:23 51°15.042 2°46.999 275.7 12.9 273 11
2007-04-11 07:05:28 51°15.043 2°46.97 275.4 13 273 11.1
2007-04-11 07:05:33 51°15.044 2°46.942 275.3 13 273 10.9
2007-04-11 07:05:38 51°15.045 2°46.913 275.2 13 273 10.9
2007-04-11 07:05:42 51°15.045 2°46.89 275.3 13 272 11.2
2007-04-11 07:05:48 51°15.047 2°46.856 275 13 273 11.2
2007-04-11 07:05:52 51°15.047 2°46.833 275 13 272 11.2
2007-04-11 07:05:58 51°15.048 2°46.798 275 13 274 11.3
2007-04-11 07:06:03 51°15.049 2°46.77 275.1 13 273 11.2
2007-04-11 07:06:08 51°15.05 2°46.741 275.5 13 274 11.5
2007-04-11 07:06:12 51°15.051 2°46.718 275.7 13 272 11.5
2007-04-11 07:06:18 51°15.052 2°46.683 275.8 13 274 11.6
2007-04-11 07:06:23 51°15.053 2°46.655 275.6 13 272 11.6
2007-04-11 07:06:28 51°15.054 2°46.626 275.2 13.1 274 11.6
2007-04-11 07:06:33 51°15.055 2°46.597 275.6 13 272 11.8
2007-04-11 07:06:38 51°15.056 2°46.569 275.2 13 274 11.8
2007-04-11 07:06:42 51°15.057 2°46.545 275.4 13 273 12
2007-04-11 07:06:48 51°15.058 2°46.511 275.6 13.1 274 12.2
2007-04-11 07:06:53 51°15.059 2°46.482 275.3 13 272 12.3
2007-04-11 07:06:58 51°15.06 2°46.453 275.3 13 273 12.4
2007-04-11 07:07:02 51°15.06 2°46.43 275.1 13.1 273 12.6
2007-04-11 07:07:08 51°15.062 2°46.396 275.4 13 273 12.7
2007-04-11 07:07:13 51°15.063 2°46.367 275.5 13 274 12.8
2007-04-11 07:07:18 51°15.064 2°46.338 275.5 13 273 12.9
2007-04-11 07:07:22 51°15.065 2°46.315 275.3 13 273 13.1
2007-04-11 07:07:28 51°15.066 2°46.281 275.1 13 273 13.2
2007-04-11 07:07:33 51°15.067 2°46.252 275 13 273 13.3
2007-04-11 07:07:38 51°15.068 2°46.224 275.2 13 274 13.5
2007-04-11 07:07:42 51°15.069 2°46.201 275.3 13 273 13.5
2007-04-11 07:07:48 51°15.07 2°46.167 275.3 13 275 13.6
2007-04-11 07:07:53 51°15.071 2°46.138 275.8 12.9 273 13.8
2007-04-11 07:07:58 51°15.072 2°46.109 275.1 13 273 14
2007-04-11 07:08:03 51°15.073 2°46.081 275 12.9 272 14.1
2007-04-11 07:08:08 51°15.073 2°46.052 274.6 12.9 273 14.2
2007-04-11 07:08:13 51°15.075 2°46.024 275.1 12.9 274 14.4
2007-04-11 07:08:18 51°15.075 2°45.996 275.3 12.9 272 14.5
2007-04-11 07:08:23 51°15.077 2°45.967 275.1 12.9 274 14.6
2007-04-11 07:08:28 51°15.078 2°45.939 275.3 12.9 273 14.8
2007-04-11 07:08:33 51°15.079 2°45.91 275.4 12.9 274 14.9
2007-04-11 07:08:37 51°15.08 2°45.888 275.4 12.9 273 15.1
2007-04-11 07:08:42 51°15.081 2°45.859 275.3 12.9 274 15.2
2007-04-11 07:08:48 51°15.082 2°45.825 275.2 12.9 274 15.4
2007-04-11 07:08:52 51°15.083 2°45.802 275.2 12.9 274 15.5
2007-04-11 07:08:57 51°15.084 2°45.774 275.7 12.8 274 15.6
2007-04-11 07:09:03 51°15.085 2°45.74 275.4 12.9 274 15.6
2007-04-11 07:09:08 51°15.087 2°45.712 275.4 12.8 273 15.8
2007-04-11 07:09:13 51°15.088 2°45.683 275.1 12.8 274 15.9
2007-04-11 07:09:17 51°15.088 2°45.661 275.1 12.9 273 16
2007-04-11 07:09:22 51°15.09 2°45.632 275.3 12.8 275 16.1
2007-04-11 07:09:28 51°15.091 2°45.598 275.7 12.8 273 16.3
2007-04-11 07:09:33 51°15.092 2°45.57 275.2 12.8 275 16.4
2007-04-11 07:09:38 51°15.093 2°45.542 275.8 12.7 274 16.5
2007-04-11 07:09:42 51°15.094 2°45.519 275.3 12.8 274 16.7
2007-04-11 07:09:48 51°15.096 2°45.486 275.7 12.7 274 16.7
2007-04-11 07:09:53 51°15.097 2°45.458 275.5 12.8 274 16.8
2007-04-11 07:09:58 51°15.098 2°45.429 275.1 12.8 274 17
2007-04-11 07:10:03 51°15.099 2°45.401 275.4 12.7 274 17.1
2007-04-11 07:10:08 51°15.101 2°45.373 275.7 12.8 274 17.2
2007-04-11 07:10:13 51°15.102 2°45.345 275.5 12.8 274 17.4
2007-04-11 07:10:18 51°15.103 2°45.317 275.8 12.7 274 17.4
2007-04-11 07:10:22 51°15.104 2°45.294 275.2 12.8 273 17.6
2007-04-11 07:10:28 51°15.106 2°45.261 275 12.7 273 17.6
2007-04-11 07:10:32 51°15.107 2°45.238 275 12.7 274 17.7
2007-04-11 07:10:38 51°15.108 2°45.204 275.4 12.7 274 17.9
2007-04-11 07:10:43 51°15.109 2°45.176 275.3 12.7 273 17.9
2007-04-11 07:10:48 51°15.11 2°45.148 275 12.7 274 17.9
2007-04-11 07:10:53 51°15.111 2°45.12 275 12.7 273 17.8
2007-04-11 07:10:58 51°15.113 2°45.092 275.5 12.7 275 18
2007-04-11 07:11:03 51°15.113 2°45.064 275.4 12.7 273 18.2
2007-04-11 07:11:08 51°15.115 2°45.036 275 12.8 275 18.2
2007-04-11 07:11:13 51°15.116 2°45.008 275.7 12.7 273 18.3
2007-04-11 07:11:18 51°15.117 2°44.98 275.3 12.7 274 18.3
2007-04-11 07:11:23 51°15.119 2°44.952 275.8 12.8 275 18.4
2007-04-11 07:11:28 51°15.12 2°44.924 275.8 12.8 273 18.6
2007-04-11 07:11:33 51°15.121 2°44.895 275.7 12.8 274 18.6
2007-04-11 07:11:38 51°15.122 2°44.867 275.1 12.8 273 18.7
2007-04-11 07:11:42 51°15.123 2°44.844 275.3 12.8 274 18.8
2007-04-11 07:11:48 51°15.124 2°44.811 275.1 12.9 273 18.9
2007-04-11 07:11:53 51°15.125 2°44.782 275.1 12.8 275 19
2007-04-11 07:11:58 51°15.126 2°44.754 275.6 12.8 274 19.1
2007-04-11 07:12:03 51°15.128 2°44.726 275.8 12.8 275 19.2
2007-04-11 07:12:08 51°15.129 2°44.698 275.8 12.7 274 19.3
2007-04-11 07:12:12 51°15.13 2°44.675 275.5 12.8 274 19.5
2007-04-11 07:12:18 51°15.132 2°44.641 275.1 12.8 274 19.5
2007-04-11 07:12:22 51°15.133 2°44.619 275.1 12.7 274 19.6
2007-04-11 07:12:28 51°15.134 2°44.585 275.5 12.7 273 19.7
2007-04-11 07:12:33 51°15.136 2°44.557 275.1 12.7 274 19.8
2007-04-11 07:12:38 51°15.137 2°44.529 275.3 12.7 274 19.9
2007-04-11 07:12:42 51°15.138 2°44.507 275.5 12.7 274 19.9
2007-04-11 07:12:48 51°15.139 2°44.474 275.3 12.7 275 20
2007-04-11 07:12:53 51°15.14 2°44.445 275.3 12.7 273 20
2007-04-11 07:12:58 51°15.142 2°44.418 275.3 12.7 275 20
2007-04-11 07:13:03 51°15.143 2°44.39 275.6 12.7 274 20
2007-04-11 07:13:08 51°15.145 2°44.362 275.5 12.7 274 20
2007-04-11 07:13:13 51°15.146 2°44.334 275.3 12.7 274 19.9
2007-04-11 07:13:18 51°15.147 2°44.306 275.1 12.7 274 20
2007-04-11 07:13:23 51°15.148 2°44.278 275 12.7 275 19.9
2007-04-11 07:13:28 51°15.15 2°44.25 275.5 12.7 274 19.8
2007-04-11 07:13:33 51°15.151 2°44.222 275.3 12.7 274 19.7
2007-04-11 07:13:38 51°15.152 2°44.194 275.2 12.7 274 19.4
2007-04-11 07:13:42 51°15.153 2°44.172 275.2 12.7 275 19.5
2007-04-11 07:13:48 51°15.155 2°44.138 275.4 12.7 274 19.4
2007-04-11 07:13:53 51°15.156 2°44.11 275.8 12.7 275 19.2
2007-04-11 07:13:58 51°15.158 2°44.082 275.6 12.6 274 19
2007-04-11 07:14:02 51°15.159 2°44.06 275.4 12.7 275 18.8
2007-04-11 07:14:08 51°15.16 2°44.026 275.3 12.6 274 18.7
2007-04-11 07:14:13 51°15.161 2°43.998 275.2 12.7 274 18.5
2007-04-11 07:14:18 51°15.163 2°43.97 275 12.6 275 18.3
2007-04-11 07:14:23 51°15.164 2°43.943 275 12.6 274 18
2007-04-11 07:14:28 51°15.165 2°43.915 274.9 12.7 274 17.7
2007-04-11 07:14:33 51°15.167 2°43.887 275 12.6 275 17.5
2007-04-11 07:14:38 51°15.168 2°43.859 275.4 12.5 273 17.3
2007-04-11 07:14:42 51°15.169 2°43.837 275 12.6 275 16.9
2007-04-11 07:14:48 51°15.17 2°43.804 275.5 12.6 273 16.8
2007-04-11 07:14:52 51°15.171 2°43.781 275.1 12.6 274 16.8
2007-04-11 07:14:58 51°15.173 2°43.748 275.1 12.6 274 16.5
2007-04-11 07:15:03 51°15.174 2°43.72 275.4 12.6 274 16.2
2007-04-11 07:15:08 51°15.176 2°43.692 275.2 12.7 274 16.1
2007-04-11 07:15:13 51°15.177 2°43.664 275.4 12.7 274 16
2007-04-11 07:15:18 51°15.178 2°43.637 275.8 12.6 274 15.7
2007-04-11 07:15:22 51°15.179 2°43.615 275.2 12.6 273 15
2007-04-11 07:15:28 51°15.181 2°43.581 274.9 12.6 274 12.7
2007-04-11 07:15:33 51°15.182 2°43.554 275.1 12.5 274 14
2007-04-11 07:15:38 51°15.183 2°43.526 275.2 12.5 273 14.7
2007-04-11 07:15:42 51°15.183 2°43.503 274.9 12.6 273 14.8
2007-04-11 07:15:48 51°15.184 2°43.47 274.4 12.8 273 14.8
2007-04-11 07:15:53 51°15.186 2°43.442 274.9 12.7 274 14.9
2007-04-11 07:15:58 51°15.186 2°43.414 275.2 12.6 273 14.8
2007-04-11 07:16:02 51°15.188 2°43.392 274.8 12.7 274 14.8
2007-04-11 07:16:08 51°15.189 2°43.358 275.3 12.7 274 15
2007-04-11 07:16:13 51°15.191 2°43.33 275.7 12.7 275 14.9
2007-04-11 07:16:18 51°15.192 2°43.302 275.4 12.6 273 14.9
2007-04-11 07:16:22 51°15.192 2°43.28 275 12.7 274 15
2007-04-11 07:16:28 51°15.194 2°43.247 275 12.7 274 15
2007-04-11 07:16:33 51°15.195 2°43.219 275 12.7 275 15
2007-04-11 07:16:38 51°15.197 2°43.191 275.5 12.6 274 15.1
2007-04-11 07:16:42 51°15.198 2°43.169 275.4 12.7 274 15.1
2007-04-11 07:16:48 51°15.199 2°43.135 275.3 12.7 274 15.1
2007-04-11 07:16:53 51°15.2 2°43.107 275.3 12.7 274 15.2
2007-04-11 07:16:58 51°15.202 2°43.079 275.5 12.7 275 15.2
2007-04-11 07:17:03 51°15.203 2°43.051 276.2 12.6 274 15.3
2007-04-11 07:17:08 51°15.204 2°43.024 275.6 12.6 274 15.3
2007-04-11 07:17:13 51°15.206 2°42.996 275 12.7 274 15.3
2007-04-11 07:17:18 51°15.207 2°42.968 275.4 12.7 275 15.3
2007-04-11 07:17:23 51°15.208 2°42.94 275.7 12.6 274 15.1
2007-04-11 07:17:28 51°15.21 2°42.912 275.8 12.6 275 15
2007-04-11 07:17:33 51°15.211 2°42.884 275.7 12.7 273 14.8
2007-04-11 07:17:37 51°15.212 2°42.862 275.4 12.7 274 15
2007-04-11 07:17:43 51°15.213 2°42.828 275.5 12.7 274 15.3
2007-04-11 07:17:48 51°15.215 2°42.8 275.8 12.7 274 15.2
2007-04-11 07:17:53 51°15.216 2°42.772 275.5 12.7 274 15.2
2007-04-11 07:17:58 51°15.217 2°42.744 275.4 12.7 274 15.2
2007-04-11 07:18:03 51°15.218 2°42.716 275.7 12.6 274 15.1
2007-04-11 07:18:08 51°15.219 2°42.688 275.3 12.7 273 15.1
2007-04-11 07:18:13 51°15.221 2°42.66 275.4 12.8 275 15.2
2007-04-11 07:18:18 51°15.221 2°42.632 275.4 12.7 273 15.3
2007-04-11 07:18:22 51°15.223 2°42.61 275.4 12.7 273 15.3
2007-04-11 07:18:28 51°15.224 2°42.576 274.8 12.7 273 15.3
2007-04-11 07:18:33 51°15.225 2°42.548 275.1 12.8 274 15.1
2007-04-11 07:18:38 51°15.226 2°42.519 275.2 12.8 274 15.2
2007-04-11 07:18:42 51°15.227 2°42.497 275.4 12.8 274 15
2007-04-11 07:18:48 51°15.228 2°42.463 275.3 12.7 274 14.3
2007-04-11 07:18:53 51°15.23 2°42.435 275.3 12.7 274 12.5
2007-04-11 07:18:58 51°15.231 2°42.407 275.4 12.7 274 13.1
2007-04-11 07:19:02 51°15.232 2°42.385 275.7 12.7 275 14
2007-04-11 07:19:08 51°15.233 2°42.351 275.4 12.7 273 14.1
2007-04-11 07:19:13 51°15.234 2°42.323 275.2 12.7 274 14.2
2007-04-11 07:19:18 51°15.235 2°42.295 274.8 12.7 273 13.8
2007-04-11 07:19:23 51°15.236 2°42.267 274.3 12.8 272 12
2007-04-11 07:19:28 51°15.237 2°42.239 274.6 12.8 273 12.7
2007-04-11 07:19:33 51°15.238 2°42.211 275.1 12.7 274 13.2
2007-04-11 07:19:38 51°15.238 2°42.183 275.5 12.8 272 13.2
2007-04-11 07:19:43 51°15.239 2°42.154 274.6 12.9 273 13.2
2007-04-11 07:19:48 51°15.24 2°42.126 275.4 12.8 273 13
2007-04-11 07:19:53 51°15.241 2°42.098 275 12.8 273 13.1
2007-04-11 07:19:58 51°15.242 2°42.069 275.4 12.8 273 13.2
2007-04-11 07:20:03 51°15.243 2°42.041 274.5 12.9 272 13
2007-04-11 07:20:08 51°15.244 2°42.012 275 12.9 273 13.1
2007-04-11 07:20:13 51°15.245 2°41.984 275 12.8 273 13.1
2007-04-11 07:20:18 51°15.246 2°41.956 275 12.9 273 12.7
2007-04-11 07:20:22 51°15.246 2°41.933 275.2 12.8 273 12.9
2007-04-11 07:20:28 51°15.248 2°41.899 275.2 12.8 274 13.2
2007-04-11 07:20:33 51°15.248 2°41.871 275.3 12.9 272 13
2007-04-11 07:20:38 51°15.25 2°41.842 275.5 12.9 274 13
2007-04-11 07:20:42 51°15.25 2°41.82 275.8 12.9 273 13.2
2007-04-11 07:20:48 51°15.252 2°41.785 275.6 12.9 274 13.3
2007-04-11 07:20:53 51°15.252 2°41.757 275.8 12.9 272 13.1
2007-04-11 07:20:58 51°15.253 2°41.728 275.2 12.9 273 12.9
2007-04-11 07:21:03 51°15.255 2°41.7 275.3 12.9 273 13.1
2007-04-11 07:21:08 51°15.255 2°41.671 275.4 12.9 273 12.8
2007-04-11 07:21:13 51°15.256 2°41.643 275.3 13 273 12.8
2007-04-11 07:21:18 51°15.257 2°41.614 275.3 12.9 272 13.2
2007-04-11 07:21:22 51°15.258 2°41.592 274.8 12.9 273 13.3
2007-04-11 07:21:28 51°15.259 2°41.557 274.7 13 273 13.1
2007-04-11 07:21:33 51°15.26 2°41.529 275.3 12.9 273 13.2
2007-04-11 07:21:38 51°15.261 2°41.5 275.4 12.9 274 13.3
2007-04-11 07:21:42 51°15.262 2°41.477 275.5 12.9 274 12.9
2007-04-11 07:21:48 51°15.263 2°41.443 275.8 12.9 273 12.9
2007-04-11 07:21:53 51°15.264 2°41.415 275.1 12.9 273 12.8
2007-04-11 07:21:58 51°15.265 2°41.387 275.1 12.9 273 12.5
2007-04-11 07:22:03 51°15.266 2°41.358 275.1 12.9 273 12.4
2007-04-11 07:22:08 51°15.267 2°41.33 275 12.9 273 12.6
2007-04-11 07:22:13 51°15.267 2°41.301 274.8 12.9 273 12.7
2007-04-11 07:22:18 51°15.269 2°41.273 274.9 12.9 273 12.6
2007-04-11 07:22:22 51°15.269 2°41.25 274.6 12.9 272 12.5
2007-04-11 07:22:28 51°15.27 2°41.216 275.1 12.9 274 12.7
2007-04-11 07:22:33 51°15.271 2°41.188 274.8 12.8 272 12.7
2007-04-11 07:22:38 51°15.272 2°41.16 275 12.9 274 12.8
2007-04-11 07:22:43 51°15.273 2°41.131 275 12.9 273 12.9
2007-04-11 07:22:48 51°15.274 2°41.103 275.2 12.9 273 12.9
2007-04-11 07:22:53 51°15.275 2°41.074 275.2 12.9 273 12.9
2007-04-11 07:22:58 51°15.276 2°41.046 275.2 12.8 273 13
2007-04-11 07:23:02 51°15.277 2°41.023 275 13 272 13.2
2007-04-11 07:23:08 51°15.279 2°40.989 275.3 12.9 275 12.9
2007-04-11 07:23:13 51°15.279 2°40.96 275.6 12.8 272 13.1
2007-04-11 07:23:18 51°15.281 2°40.932 275 13 274 13.1
2007-04-11 07:23:23 51°15.282 2°40.903 275.7 12.9 273 13.1
2007-04-11 07:23:27 51°15.282 2°40.881 275.5 12.8 273 13.1
2007-04-11 07:23:33 51°15.284 2°40.847 275.1 12.9 273 13.1
2007-04-11 07:23:38 51°15.285 2°40.818 275 13 273 13.2
2007-04-11 07:23:43 51°15.286 2°40.789 275.4 12.9 274 13.1
2007-04-11 07:23:48 51°15.287 2°40.761 275.6 12.9 273 13
2007-04-11 07:23:53 51°15.288 2°40.732 275.2 12.9 274 13.2
2007-04-11 07:23:58 51°15.289 2°40.704 275.8 12.9 274 13.3
2007-04-11 07:24:03 51°15.291 2°40.676 275.4 12.9 274 13.3
2007-04-11 07:24:08 51°15.292 2°40.647 275.5 12.9 274 13.6
2007-04-11 07:24:13 51°15.293 2°40.619 275.4 13 274 13.7
2007-04-11 07:24:18 51°15.294 2°40.59 275.4 12.9 273 13.5
2007-04-11 07:24:22 51°15.295 2°40.567 275.4 12.9 274 13.6
2007-04-11 07:24:28 51°15.297 2°40.533 275.3 13 274 14.3
2007-04-11 07:24:33 51°15.298 2°40.504 275.4 13 274 14.1
2007-04-11 07:24:38 51°15.299 2°40.476 275.8 12.9 274 13.8
2007-04-11 07:24:43 51°15.3 2°40.447 275.2 13 274 14.6
2007-04-11 07:24:48 51°15.302 2°40.419 275.2 13 274 14.8
2007-04-11 07:24:53 51°15.303 2°40.39 275.6 13 274 14.6
2007-04-11 07:24:58 51°15.304 2°40.361 275.6 13 273 14.6
2007-04-11 07:25:02 51°15.305 2°40.338 275.4 13 274 14.8
2007-04-11 07:25:08 51°15.306 2°40.304 275.4 13 273 14.8
2007-04-11 07:25:13 51°15.308 2°40.275 275.3 13 275 15.3
2007-04-11 07:25:18 51°15.309 2°40.247 275.4 13 273 15.6
2007-04-11 07:25:22 51°15.31 2°40.224 275.2 13 275 15.9
2007-04-11 07:25:28 51°15.311 2°40.189 275.2 13 274 15.9
2007-04-11 07:25:33 51°15.313 2°40.161 275.5 13 275 16.1
2007-04-11 07:25:38 51°15.314 2°40.132 275.8 13 274 16.2
2007-04-11 07:25:42 51°15.315 2°40.109 275.1 13 274 16.4
2007-04-11 07:25:48 51°15.316 2°40.075 275.3 13 273 17
2007-04-11 07:25:53 51°15.318 2°40.046 275.4 12.9 275 17.4
2007-04-11 07:25:58 51°15.319 2°40.018 275.5 12.9 273 17.2
2007-04-11 07:26:03 51°15.321 2°39.989 275.1 12.9 275 17.5
2007-04-11 07:26:08 51°15.322 2°39.961 275.2 12.8 274 17.6
2007-04-11 07:26:13 51°15.323 2°39.933 275.2 12.9 274 18.1
2007-04-11 07:26:18 51°15.324 2°39.904 275 12.9 274 18.3
2007-04-11 07:26:23 51°15.326 2°39.876 275.5 12.8 275 17.9
2007-04-11 07:26:28 51°15.327 2°39.848 275.5 12.8 274 18.3
2007-04-11 07:26:33 51°15.328 2°39.82 275.4 12.8 275 18.3
2007-04-11 07:26:38 51°15.33 2°39.792 275.5 12.8 275 18.4
2007-04-11 07:26:42 51°15.331 2°39.769 275.8 12.7 275 18.9
2007-04-11 07:26:48 51°15.332 2°39.735 275.8 12.7 274 18.8
2007-04-11 07:26:53 51°15.334 2°39.708 275.7 12.7 275 18.7
2007-04-11 07:26:57 51°15.335 2°39.685 275.8 12.7 274 18.9
2007-04-11 07:27:03 51°15.336 2°39.651 275.8 12.7 274 19
2007-04-11 07:27:08 51°15.338 2°39.624 275.7 12.6 274 19.1
2007-04-11 07:27:13 51°15.339 2°39.596 275.1 12.7 274 19.1
2007-04-11 07:27:17 51°15.34 2°39.573 275.3 12.7 275 19.7
2007-04-11 07:27:23 51°15.342 2°39.54 275.3 12.7 274 19.4
2007-04-11 07:27:28 51°15.343 2°39.512 275.3 12.7 275 19.7
2007-04-11 07:27:33 51°15.344 2°39.484 275.4 12.7 274 19.8
2007-04-11 07:27:37 51°15.346 2°39.462 275.5 12.7 275 19.8
2007-04-11 07:27:43 51°15.347 2°39.428 275.5 12.7 274 19.9
2007-04-11 07:27:48 51°15.348 2°39.4 275.2 12.7 275 19.9
2007-04-11 07:27:53 51°15.35 2°39.372 275.6 12.7 274 20.1
2007-04-11 07:27:58 51°15.351 2°39.344 275.4 12.7 274 20.1
2007-04-11 07:28:02 51°15.352 2°39.322 275 12.7 274 20.1
2007-04-11 07:28:08 51°15.354 2°39.288 275 12.7 275 20
2007-04-11 07:28:13 51°15.355 2°39.261 275.3 12.7 275 20.1
2007-04-11 07:28:18 51°15.357 2°39.233 275.7 12.7 274 20.1
2007-04-11 07:28:23 51°15.358 2°39.205 275.4 12.6 274 20.2
2007-04-11 07:28:28 51°15.359 2°39.177 275.2 12.7 274 19.9
2007-04-11 07:28:33 51°15.36 2°39.149 275.1 12.7 274 20.1
2007-04-11 07:28:38 51°15.361 2°39.121 275 12.7 274 20.1
2007-04-11 07:28:43 51°15.362 2°39.093 275 12.7 273 20
2007-04-11 07:28:48 51°15.363 2°39.065 274.9 12.7 273 20
2007-04-11 07:28:53 51°15.364 2°39.036 274.8 12.8 273 20
2007-04-11 07:28:58 51°15.365 2°39.008 274.7 12.8 273 19.7
2007-04-11 07:29:03 51°15.366 2°38.98 274.6 12.8 273 19.8
2007-04-11 07:29:08 51°15.367 2°38.952 274.7 12.8 274 19.7
2007-04-11 07:29:13 51°15.369 2°38.924 275.1 12.8 273 19.4
2007-04-11 07:29:18 51°15.37 2°38.895 275.4 12.8 275 19.5
2007-04-11 07:29:23 51°15.371 2°38.867 275.5 12.8 272 19.3
2007-04-11 07:29:28 51°15.372 2°38.839 275 12.8 273 19.2
2007-04-11 07:29:33 51°15.372 2°38.811 274.4 12.9 272 18.9
2007-04-11 07:29:38 51°15.373 2°38.782 274.3 12.9 273 18.8
2007-04-11 07:29:43 51°15.373 2°38.754 274.4 12.9 272 18.5
2007-04-11 07:29:48 51°15.375 2°38.725 274.8 12.9 274 18.2
2007-04-11 07:29:52 51°15.375 2°38.702 275 12.9 271 18.1
2007-04-11 07:29:58 51°15.376 2°38.668 274.7 13 274 18
2007-04-11 07:30:02 51°15.377 2°38.645 275.2 12.9 272 17.6
2007-04-11 07:30:08 51°15.378 2°38.611 275.2 12.9 273 17.2
2007-04-11 07:30:13 51°15.378 2°38.583 275.4 12.9 272 17.1
2007-04-11 07:30:18 51°15.379 2°38.554 275.1 12.9 273 16.4
2007-04-11 07:30:22 51°15.38 2°38.531 275 12.9 272 16.1
2007-04-11 07:30:28 51°15.381 2°38.497 274.6 12.9 273 15.7
2007-04-11 07:30:33 51°15.382 2°38.469 275.2 12.9 273 15.7
2007-04-11 07:30:38 51°15.383 2°38.44 275.3 12.9 273 15.3
2007-04-11 07:30:43 51°15.384 2°38.412 275.3 12.9 273 14.9
2007-04-11 07:30:48 51°15.385 2°38.384 275.3 12.9 273 14.8
2007-04-11 07:30:53 51°15.385 2°38.355 275.4 12.9 273 14.5
2007-04-11 07:30:58 51°15.386 2°38.327 275 12.8 273 14.2
2007-04-11 07:31:03 51°15.387 2°38.299 275 12.9 272 13.9
2007-04-11 07:31:08 51°15.388 2°38.27 274.9 12.9 273 13.6
2007-04-11 07:31:13 51°15.389 2°38.242 275.6 12.8 273 13
2007-04-11 07:31:18 51°15.39 2°38.214 275.2 12.9 275 12.8
2007-04-11 07:31:23 51°15.391 2°38.186 275.8 12.8 273 12.9
2007-04-11 07:31:28 51°15.392 2°38.157 275.5 12.9 273 12.7
2007-04-11 07:31:33 51°15.393 2°38.129 275.6 12.8 274 12.7
2007-04-11 07:31:38 51°15.394 2°38.101 275.7 12.7 273 12.6
2007-04-11 07:31:43 51°15.395 2°38.073 275 12.9 273 12.4
2007-04-11 07:31:48 51°15.396 2°38.044 275.1 12.8 274 12.5
2007-04-11 07:31:53 51°15.397 2°38.016 275.8 12.8 272 12.3
2007-04-11 07:31:58 51°15.398 2°37.988 275.1 12.8 274 12.4
2007-04-11 07:32:03 51°15.399 2°37.96 275.2 12.8 272 12.4
2007-04-11 07:32:08 51°15.4 2°37.932 275 12.9 273 11.8
2007-04-11 07:32:13 51°15.401 2°37.903 275 12.8 273 11.6
2007-04-11 07:32:18 51°15.402 2°37.875 275.2 12.7 273 12
2007-04-11 07:32:22 51°15.402 2°37.853 274.6 12.8 273 12
2007-04-11 07:32:28 51°15.403 2°37.819 275 12.9 273 11.6
2007-04-11 07:32:33 51°15.404 2°37.79 275.3 12.8 273 12.5
2007-04-11 07:32:38 51°15.405 2°37.762 275.4 12.8 273 12.1
2007-04-11 07:32:43 51°15.406 2°37.734 275.2 12.8 273 11.9
2007-04-11 07:32:48 51°15.407 2°37.705 274.8 12.9 273 12.5
2007-04-11 07:32:53 51°15.408 2°37.677 275 12.9 274 12.2
2007-04-11 07:32:58 51°15.409 2°37.649 275.6 12.8 273 12.3
2007-04-11 07:33:03 51°15.41 2°37.62 275.2 12.8 273 13
2007-04-11 07:33:08 51°15.411 2°37.592 275.3 12.9 274 13.1
2007-04-11 07:33:13 51°15.412 2°37.563 275.6 12.9 273 12.4
2007-04-11 07:33:18 51°15.413 2°37.535 275.7 12.8 274 10.9
2007-04-11 07:33:23 51°15.414 2°37.507 275 12.8 272 12.9
2007-04-11 07:33:28 51°15.416 2°37.478 275.3 12.9 274 12
2007-04-11 07:33:33 51°15.416 2°37.45 275.3 12.8 272 13.1
2007-04-11 07:33:38 51°15.417 2°37.422 275 12.8 273 13.8
2007-04-11 07:33:43 51°15.418 2°37.393 275 12.9 273 12.2
2007-04-11 07:33:48 51°15.42 2°37.365 275.7 12.8 275 12.5
2007-04-11 07:33:53 51°15.42 2°37.337 275.9 12.7 272 13.8
2007-04-11 07:33:58 51°15.422 2°37.308 275.7 12.8 275 14.3
2007-04-11 07:34:02 51°15.422 2°37.286 275.3 12.9 272 13.9
2007-04-11 07:34:08 51°15.424 2°37.251 275.3 12.9 274 14
2007-04-11 07:34:13 51°15.425 2°37.223 275.5 12.8 273 14.5
2007-04-11 07:34:18 51°15.426 2°37.194 275.7 12.9 274 13.3
2007-04-11 07:34:22 51°15.427 2°37.172 276.1 12.9 276 13.7
2007-04-11 07:34:28 51°15.429 2°37.138 276.9 12.9 275 14.5
2007-04-11 07:34:33 51°15.431 2°37.109 276.9 12.9 276 14.9
2007-04-11 07:34:38 51°15.433 2°37.081 277.9 12.9 277 15
2007-04-11 07:34:43 51°15.435 2°37.052 277.3 12.9 274 14.9
2007-04-11 07:34:48 51°15.438 2°37.024 277.6 13 278 14.6
2007-04-11 07:34:53 51°15.439 2°36.996 277.9 12.9 275 14.4
2007-04-11 07:34:58 51°15.441 2°36.967 277.9 12.9 278 14.1
2007-04-11 07:35:03 51°15.443 2°36.939 278.2 12.8 275 13.3
2007-04-11 07:35:08 51°15.445 2°36.911 277.8 12.8 277 11.4
2007-04-11 07:35:13 51°15.447 2°36.883 277.9 12.8 277 11
2007-04-11 07:35:18 51°15.449 2°36.855 278 12.7 276 12.4
2007-04-11 07:35:22 51°15.451 2°36.833 278 12.7 277 13.4
2007-04-11 07:35:28 51°15.453 2°36.799 277.8 13 275 13.8
2007-04-11 07:35:33 51°15.455 2°36.77 277.6 13 276 14.1
2007-04-11 07:35:38 51°15.456 2°36.742 277.4 12.9 275 14.4
2007-04-11 07:35:43 51°15.458 2°36.713 277.2 12.9 276 14.9
2007-04-11 07:35:48 51°15.46 2°36.685 277.3 13.1 276 15.2
2007-04-11 07:35:53 51°15.462 2°36.656 277.7 13 276 15.4
2007-04-11 07:35:58 51°15.464 2°36.628 277.9 12.9 276 15.8
2007-04-11 07:36:03 51°15.466 2°36.599 277.4 12.9 276 16
2007-04-11 07:36:08 51°15.468 2°36.571 277.3 12.9 276 15.9
2007-04-11 07:36:13 51°15.469 2°36.543 277.6 12.9 276 16.2
2007-04-11 07:36:18 51°15.471 2°36.514 277.8 12.9 276 16.6
2007-04-11 07:36:23 51°15.473 2°36.486 277.9 12.9 276 17.3
2007-04-11 07:36:28 51°15.475 2°36.458 277.8 12.9 276 17.4
2007-04-11 07:36:33 51°15.477 2°36.429 277.2 13 276 17.5
2007-04-11 07:36:38 51°15.479 2°36.401 277.5 12.9 277 17.7
2007-04-11 07:36:42 51°15.48 2°36.378 277.7 12.8 275 18
2007-04-11 07:36:48 51°15.482 2°36.344 277.2 13 276 18.3
2007-04-11 07:36:53 51°15.484 2°36.316 277.5 12.9 277 18.8
2007-04-11 07:36:58 51°15.486 2°36.288 277.9 12.7 276 19.2
2007-04-11 07:37:03 51°15.489 2°36.259 277.7 12.9 277 19.3
2007-04-11 07:37:08 51°15.491 2°36.231 277.7 13 277 19.6
2007-04-11 07:37:13 51°15.493 2°36.202 277.8 12.9 276 20.5
2007-04-11 07:37:18 51°15.495 2°36.174 277.8 12.9 277 20.8
2007-04-11 07:37:23 51°15.497 2°36.146 277.9 13 276 21.6
2007-04-11 07:37:28 51°15.5 2°36.117 277.9 12.9 278 21.5
2007-04-11 07:37:32 51°15.501 2°36.095 277.9 12.9 275 21.9
2007-04-11 07:37:38 51°15.503 2°36.06 277.5 13 277 22.3
2007-04-11 07:37:43 51°15.505 2°36.032 277.7 12.9 276 22.7
2007-04-11 07:37:48 51°15.507 2°36.003 277.3 13 276 23.5
2007-04-11 07:37:53 51°15.509 2°35.975 277.2 13.1 277 24.2
2007-04-11 07:37:58 51°15.511 2°35.947 277.4 13 276 24.2
2007-04-11 07:38:03 51°15.513 2°35.918 277.6 13 277 24.9
2007-04-11 07:38:08 51°15.516 2°35.89 277.5 13 277 25.4
2007-04-11 07:38:13 51°15.518 2°35.861 277.7 13 277 26.1
2007-04-11 07:38:18 51°15.52 2°35.832 277.6 13 276 26.5
2007-04-11 07:38:23 51°15.522 2°35.804 277.4 13 276 27
2007-04-11 07:38:28 51°15.524 2°35.775 277.2 13 276 27.1
2007-04-11 07:38:33 51°15.525 2°35.747 277.3 13 275 27.2
2007-04-11 07:38:38 51°15.528 2°35.718 277 13.1 277 27.1
2007-04-11 07:38:42 51°15.529 2°35.695 277.2 13 275 27.2
2007-04-11 07:38:48 51°15.531 2°35.66 277 13.1 277 27.4
2007-04-11 07:38:53 51°15.533 2°35.632 277 13 276 27.6
2007-04-11 07:38:58 51°15.535 2°35.603 276.9 13.1 276 27.7
2007-04-11 07:39:02 51°15.537 2°35.58 277 13.1 276 27.7
2007-04-11 07:39:08 51°15.539 2°35.545 277.1 13.1 276 27.8
2007-04-11 07:39:13 51°15.541 2°35.517 277.2 13.1 276 27.7
2007-04-11 07:39:18 51°15.543 2°35.488 277 13.1 276 27.6
2007-04-11 07:39:22 51°15.545 2°35.465 277.1 13.2 276 27.6
2007-04-11 07:39:28 51°15.547 2°35.43 277.2 13.2 278 27.7
2007-04-11 07:39:33 51°15.55 2°35.401 277.4 13.2 277 27.5
2007-04-11 07:39:38 51°15.552 2°35.372 277.7 13.2 278 27.6
2007-04-11 07:39:43 51°15.555 2°35.343 278 13.1 277 27.6
2007-04-11 07:39:48 51°15.557 2°35.315 277.8 13.2 277 27.4
2007-04-11 07:39:53 51°15.559 2°35.286 277.7 13.2 277 27.3
2007-04-11 07:39:58 51°15.561 2°35.257 277.7 13.1 277 27.3
2007-04-11 07:40:03 51°15.564 2°35.228 277.4 13.1 278 27.3
2007-04-11 07:40:08 51°15.566 2°35.199 277.6 13.1 277 27.3
2007-04-11 07:40:13 51°15.568 2°35.17 277.1 13.2 277 27.3
2007-04-11 07:40:18 51°15.571 2°35.142 277.2 13.2 277 27.5
2007-04-11 07:40:23 51°15.573 2°35.112 277.2 13.2 277 27.6
2007-04-11 07:40:28 51°15.575 2°35.084 277.2 13.1 277 27.5
2007-04-11 07:40:33 51°15.578 2°35.055 277.5 13.2 278 27.6
2007-04-11 07:40:38 51°15.58 2°35.026 277.7 13.1 278 27.6
2007-04-11 07:40:43 51°15.582 2°34.997 277.7 13.2 278 27.6
2007-04-11 07:40:48 51°15.585 2°34.968 277.6 13.2 278 27.5
2007-04-11 07:40:53 51°15.587 2°34.94 277.7 13.1 277 27.5
2007-04-11 07:40:58 51°15.589 2°34.911 277.4 13.1 277 27.5
2007-04-11 07:41:03 51°15.591 2°34.882 277.2 13.1 277 27.4
2007-04-11 07:41:08 51°15.593 2°34.854 277.4 13.1 278 27.6
2007-04-11 07:41:13 51°15.595 2°34.825 277 13.1 277 27.8
2007-04-11 07:41:18 51°15.597 2°34.796 277 13.2 278 27.8
2007-04-11 07:41:22 51°15.599 2°34.773 276.9 13.1 277 27.8
2007-04-11 07:41:28 51°15.602 2°34.739 277.2 13.1 278 27.7
2007-04-11 07:41:33 51°15.604 2°34.71 277.1 13.2 277 27.2
2007-04-11 07:41:38 51°15.607 2°34.681 277.1 13.2 278 27.2
2007-04-11 07:41:42 51°15.609 2°34.658 276.9 13.2 276 27.3
2007-04-11 07:41:48 51°15.612 2°34.623 276.7 13.2 279 27.7
2007-04-11 07:41:53 51°15.614 2°34.594 277.2 13.2 276 27.9
2007-04-11 07:41:58 51°15.617 2°34.566 277 13.2 279 27.3
2007-04-11 07:42:02 51°15.619 2°34.542 277.2 13.1 277 27.1
2007-04-11 07:42:08 51°15.622 2°34.508 277.5 13.2 279 27.2
2007-04-11 07:42:13 51°15.625 2°34.479 277.4 13.1 278 27.3
2007-04-11 07:42:18 51°15.627 2°34.45 277.3 13.2 278 26.9
2007-04-11 07:42:23 51°15.63 2°34.422 277.1 13.1 278 27
2007-04-11 07:42:28 51°15.632 2°34.393 277.1 13.1 278 26.9
2007-04-11 07:42:33 51°15.634 2°34.364 276.8 13.2 277 26.8
2007-04-11 07:42:38 51°15.637 2°34.335 276.5 13.1 278 26.3
2007-04-11 07:42:43 51°15.639 2°34.307 276.8 13.1 277 26.3
2007-04-11 07:42:48 51°15.642 2°34.278 276.8 13.2 279 25.9
2007-04-11 07:42:53 51°15.645 2°34.249 277.1 13.1 278 25.6
2007-04-11 07:42:58 51°15.647 2°34.22 277.2 13.1 277 25.4
2007-04-11 07:43:02 51°15.649 2°34.197 276.5 13.1 278 25.2
2007-04-11 07:43:08 51°15.652 2°34.163 276.9 13 278 24.8
2007-04-11 07:43:13 51°15.655 2°34.134 276.6 13.1 278 25.1
2007-04-11 07:43:18 51°15.657 2°34.106 277 13 277 23.8
2007-04-11 07:43:22 51°15.66 2°34.083 277.1 13 278 23.3
2007-04-11 07:43:28 51°15.662 2°34.048 276.7 13 277 23.1
2007-04-11 07:43:33 51°15.665 2°34.02 276.5 13.1 278 22.2
2007-04-11 07:43:38 51°15.667 2°33.991 276.5 13 277 21.1
2007-04-11 07:43:42 51°15.669 2°33.968 276.2 13 277 20.5
2007-04-11 07:43:48 51°15.672 2°33.933 276.2 13 277 19.5
2007-04-11 07:43:53 51°15.674 2°33.905 276.3 13.1 278 18.4
2007-04-11 07:43:58 51°15.676 2°33.876 276.5 13 277 17.7
2007-04-11 07:44:03 51°15.679 2°33.848 276.5 13.1 278 17
2007-04-11 07:44:08 51°15.681 2°33.819 276.5 13 277 16.5
2007-04-11 07:44:13 51°15.684 2°33.791 277.1 12.9 279 15.9
2007-04-11 07:44:18 51°15.686 2°33.763 277.1 13 278 15.2
2007-04-11 07:44:22 51°15.689 2°33.74 277.4 13.1 279 14.5
2007-04-11 07:44:28 51°15.692 2°33.705 277.5 13.1 278 14.2
2007-04-11 07:44:33 51°15.695 2°33.677 277.6 12.9 278 13.6
2007-04-11 07:44:38 51°15.697 2°33.649 276.9 12.9 276 13.3
2007-04-11 07:44:43 51°15.699 2°33.62 276.1 13.1 279 12.8
2007-04-11 07:44:48 51°15.702 2°33.592 276.9 13 278 12.6
2007-04-11 07:44:52 51°15.704 2°33.569 277.1 12.9 278 12
2007-04-11 07:44:57 51°15.706 2°33.541 276.8 13.1 278 12.1
2007-04-11 07:45:03 51°15.709 2°33.506 277.1 13.1 278 11.7
2007-04-11 07:45:08 51°15.711 2°33.478 277.3 12.9 277 10.8
2007-04-11 07:45:13 51°15.714 2°33.45 277 12.9 277 11.7
2007-04-11 07:45:18 51°15.715 2°33.421 276.1 12.9 276 11.4
2007-04-11 07:45:22 51°15.717 2°33.398 275.8 13.2 276 11
2007-04-11 07:45:28 51°15.72 2°33.364 276.3 13.2 277 10.6
2007-04-11 07:45:33 51°15.721 2°33.335 276.3 13.1 275 10.7
2007-04-11 07:45:38 51°15.724 2°33.306 276.8 13.1 277 11
2007-04-11 07:45:42 51°15.725 2°33.283 276.7 13.1 275 10.3
2007-04-11 07:45:48 51°15.727 2°33.249 276.5 13.2 276 10.2
2007-04-11 07:45:53 51°15.728 2°33.22 276.7 13.1 275 10.3
2007-04-11 07:45:58 51°15.729 2°33.191 276.3 13.2 274 10.5
2007-04-11 07:46:03 51°15.731 2°33.161 275.8 13.3 273 10.6
2007-04-11 07:46:08 51°15.732 2°33.132 275.4 13.4 273 10.1
2007-04-11 07:46:13 51°15.733 2°33.102 276.3 13.3 275 9.9
2007-04-11 07:46:18 51°15.734 2°33.073 276.5 13.2 273 10.1
2007-04-11 07:46:22 51°15.736 2°33.05 276.7 13.3 276 10
2007-04-11 07:46:28 51°15.737 2°33.014 277.2 13.4 274 9.9
2007-04-11 07:46:33 51°15.74 2°32.985 277.9 13.4 277 9.5
2007-04-11 07:46:38 51°15.741 2°32.955 277.9 13.4 273 10.2
2007-04-11 07:46:43 51°15.743 2°32.926 277.6 13.4 278 9.6
2007-04-11 07:46:48 51°15.744 2°32.896 278.2 13.4 274 9.7
2007-04-11 07:46:53 51°15.747 2°32.867 277.9 13.4 277 10.1
2007-04-11 07:46:58 51°15.748 2°32.838 278.1 13.3 275 10
2007-04-11 07:47:03 51°15.751 2°32.808 277.9 13.4 277 9.6
2007-04-11 07:47:08 51°15.752 2°32.779 278.1 13.3 276 9.3
2007-04-11 07:47:13 51°15.754 2°32.75 277.9 13.3 276 9.6
2007-04-11 07:47:18 51°15.756 2°32.721 277.9 13.4 276 9.7
2007-04-11 07:47:23 51°15.759 2°32.691 278 13.4 277 9.5
2007-04-11 07:47:28 51°15.761 2°32.662 278.5 13.3 276 9.2
2007-04-11 07:47:33 51°15.762 2°32.633 277.7 13.3 276 9.6
2007-04-11 07:47:38 51°15.764 2°32.604 277.4 13.4 276 9.7
2007-04-11 07:47:43 51°15.766 2°32.574 277.4 13.4 275 9.1
2007-04-11 07:47:48 51°15.768 2°32.545 277.4 13.2 276 9.7
2007-04-11 07:47:53 51°15.77 2°32.516 277.6 13.1 275 9.5
2007-04-11 07:47:58 51°15.771 2°32.486 276.6 13.5 276 9.7
2007-04-11 07:48:02 51°15.773 2°32.462 277.3 13.6 276 10
2007-04-11 07:48:08 51°15.774 2°32.427 277.2 13.3 275 9.7
2007-04-11 07:48:13 51°15.776 2°32.398 276.9 13.1 274 9.3
2007-04-11 07:48:18 51°15.777 2°32.369 275.3 13.2 274 9
2007-04-11 07:48:23 51°15.778 2°32.339 275 13.5 274 9.9
2007-04-11 07:48:28 51°15.779 2°32.31 275.3 13.4 273 9.5